Time;durP1;ratioP1;P1;durP2;ratioP2;P2;SDS_P1;SDS_P2;PMS_P1;PMS_P2;Temp;Humidity;BMP_temperature;BMP_pressure;BME280_temperature;BME280_humidity;BME280_pressure;Samples;Min_cycle;Max_cycle;Signal;HPM_P1;HPM_P2
2021/08/26 00:05:46;;;;;;;5.97;4.37;;;;;;;16.31;62.04;99525.72;1978804;85;29913;-69
2021/08/26 00:08:53;;;;;;;11.75;4.75;;;;;;;16.31;62.04;99525.72;2078553;85;31963;-65
2021/08/26 00:11:56;;;;;;;10.80;4.40;;;;;;;16.37;62.56;99534.66;2059410;85;33777;-68
2021/08/26 00:15:00;;;;;;;7.72;4.53;;;;;;;16.31;62.83;99529.27;2059448;85;29047;-68
2021/08/26 00:18:04;;;;;;;7.08;4.25;;;;;;;16.26;62.96;99531.53;2040424;87;27690;-68
2021/08/26 00:21:53;;;;;;;8.10;4.92;;;;;;;16.13;63.38;99507.39;2040736;85;28649;-68
2021/08/26 00:27:55;;;;;;;10.65;4.12;;;;;;;16.07;64.24;99511.96;1792797;99;29828;-68
2021/08/26 00:30:56;;;;;;;6.60;4.45;;;;;;;16.07;64.24;99511.96;1791743;99;27908;-70
2021/08/26 00:33:59;;;;;;;;;;;;;;;16.02;64.33;99505.61;1786269;98;27910;-70
2021/08/26 00:37:02;;;;;;;7.95;4.40;;;;;;;15.99;64.81;99495.06;1796755;98;28402;-70
2021/08/26 00:40:22;;;;;;;6.65;4.55;;;;;;;15.94;64.93;99496.81;1797234;98;32444;-70
2021/08/26 00:43:21;;;;;;;8.25;4.60;;;;;;;15.91;65.19;99480.86;1800013;98;29633;-70
2021/08/26 00:46:35;;;;;;;8.63;5.33;;;;;;;15.88;65.20;99473.52;1856696;95;29954;-68
2021/08/26 00:50:16;;;;;;;5.50;3.98;;;;;;;15.72;65.57;99441.55;1853156;95;28363;-62
2021/08/26 00:53:05;;;;;;;6.83;4.33;;;;;;;15.72;65.57;99441.55;1791725;98;27823;-62
2021/08/26 00:56:19;;;;;;;9.43;5.17;;;;;;;15.84;65.92;99463.45;1814899;98;31047;-62
2021/08/26 01:05:05;;;;;;;8.73;4.85;;;;;;;15.81;66.53;99462.35;1811922;93;28134;-62
2021/08/26 01:07:47;;;;;;;7.25;4.42;;;;;;;15.79;66.89;99470.59;1757692;99;27925;-62
2021/08/26 01:10:56;;;;;;;8.03;5.35;;;;;;;15.76;66.85;99464.58;1791822;99;28691;-63
2021/08/26 01:13:59;;;;;;;6.83;4.60;;;;;;;15.74;67.17;99459.80;1804448;98;31047;-62
2021/08/26 01:17:07;;;;;;;8.95;4.80;;;;;;;15.70;67.18;99454.32;1802816;98;33686;-61
2021/08/26 01:20:51;;;;;;;10.48;5.72;;;;;;;15.69;67.63;99449.39;1798959;98;29926;-61
2021/08/26 01:23:26;;;;;;;12.18;6.10;;;;;;;15.68;67.80;99448.19;1771053;98;27900;-63
2021/08/26 01:26:39;;;;;;;9.33;4.80;;;;;;;15.64;67.77;99444.39;1789630;98;28703;-62
2021/08/26 01:29:41;;;;;;;8.55;5.65;;;;;;;15.63;68.18;99441.83;1800862;98;32182;-62
2021/08/26 01:32:44;;;;;;;12.10;5.25;;;;;;;15.60;68.21;99442.93;1805248;98;34397;-64
2021/08/26 01:35:49;;;;;;;11.55;6.20;;;;;;;15.58;68.56;99439.50;1800816;98;29116;-63
2021/08/26 01:38:51;;;;;;;8.05;4.97;;;;;;;15.58;68.77;99442.70;1830272;94;28430;-62
2021/08/26 01:41:55;;;;;;;9.45;6.40;;;;;;;15.54;68.72;99439.42;1883150;90;29112;-63
2021/08/26 01:44:57;;;;;;;9.18;5.78;;;;;;;15.54;68.72;99439.42;1990097;88;31025;-63
2021/08/26 01:48:01;;;;;;;7.20;5.28;;;;;;;15.52;69.33;99444.56;1936636;90;33013;-62
2021/08/26 01:51:02;;;;;;;8.05;5.58;;;;;;;15.48;69.51;99443.47;1968823;90;29026;-63
2021/08/26 01:54:04;;;;;;;9.63;6.10;;;;;;;15.46;69.53;99439.19;1973247;88;28203;-64
2021/08/26 01:57:06;;;;;;;8.43;5.50;;;;;;;15.43;69.77;99436.75;1972231;88;29799;-63
2021/08/26 02:00:09;;;;;;;9.28;5.58;;;;;;;15.41;69.89;99427.92;1967327;88;32251;-64
2021/08/26 02:03:12;;;;;;;11.18;6.47;;;;;;;15.35;70.26;99425.25;1987803;88;33748;-62
2021/08/26 02:06:14;;;;;;;9.65;5.75;;;;;;;15.35;70.26;99425.25;1971060;88;29807;-63
2021/08/26 02:09:15;;;;;;;8.55;5.90;;;;;;;15.31;70.49;99421.08;1988446;88;27777;-64
2021/08/26 02:12:17;;;;;;;10.60;6.50;;;;;;;15.29;70.64;99421.73;1982379;88;29617;-62
2021/08/26 02:15:19;;;;;;;9.18;6.00;;;;;;;15.23;71.07;99413.63;1996629;88;32246;-62
2021/08/26 02:18:21;;;;;;;11.90;6.55;;;;;;;15.16;71.07;99417.34;1992864;88;34180;-65
2021/08/26 02:21:27;;;;;;;12.40;6.47;;;;;;;15.10;71.37;99407.08;1998818;88;30222;-63
2021/08/26 02:24:27;;;;;;;10.98;7.12;;;;;;;15.08;71.69;99402.77;1998130;88;27673;-63
2021/08/26 02:27:29;;;;;;;10.23;7.25;;;;;;;15.06;71.87;99400.72;1973895;90;29378;-62
2021/08/26 02:30:31;;;;;;;12.55;7.97;;;;;;;15.03;72.10;99401.81;1998427;88;32196;-66
2021/08/26 02:33:35;;;;;;;11.53;7.92;;;;;;;15.01;72.34;99398.38;1973043;90;34185;-63
2021/08/26 02:36:40;;;;;;;9.85;7.72;;;;;;;15.00;72.43;99395.31;1965703;88;29110;-62
2021/08/26 02:39:43;;;;;;;11.38;7.15;;;;;;;14.99;72.63;99391.78;2003352;88;27706;-62
2021/08/26 02:42:45;;;;;;;10.85;7.75;;;;;;;15.00;72.92;99393.97;2009219;86;29884;-62
2021/08/26 02:45:47;;;;;;;11.63;7.97;;;;;;;15.00;73.09;99390.80;2013853;87;32360;-65
2021/08/26 02:48:48;;;;;;;11.85;8.48;;;;;;;15.00;73.22;99395.31;2005044;87;34051;-62
2021/08/26 02:51:53;;;;;;;10.45;8.73;;;;;;;14.98;73.32;99394.11;2000615;89;28991;-63
2021/08/26 02:54:55;;;;;;;11.18;8.23;;;;;;;14.97;73.51;99388.86;2003244;87;27665;-67
2021/08/26 02:57:57;;;;;;;11.30;8.08;;;;;;;14.96;73.55;99393.38;2001008;87;29038;-63
2021/08/26 03:00:58;;;;;;;10.55;7.17;;;;;;;14.97;73.73;99387.50;2003196;87;30848;-63
2021/08/26 03:04:00;;;;;;;10.28;7.97;;;;;;;14.99;73.81;99385.03;2023373;87;34112;-64
2021/08/26 03:07:03;;;;;;;13.28;8.38;;;;;;;15.00;73.99;99377.78;2033637;87;29508;-61
2021/08/26 03:10:06;;;;;;;11.00;8.08;;;;;;;14.98;73.93;99379.27;2035876;87;27775;-66
2021/08/26 03:13:08;;;;;;;11.80;8.50;;;;;;;14.99;74.04;99377.42;2013391;87;29904;-63
2021/08/26 03:16:10;;;;;;;12.43;9.28;;;;;;;14.98;74.27;99375.23;2000577;88;32345;-65
2021/08/26 03:19:12;;;;;;;12.10;9.55;;;;;;;14.99;74.24;99368.85;2000631;88;34103;-65
2021/08/26 03:22:16;;;;;;;13.72;11.68;;;;;;;14.99;74.36;99370.67;2000338;89;30351;-67
2021/08/26 03:25:18;;;;;;;14.58;11.65;;;;;;;14.98;74.46;99367.14;2001053;87;27736;-68
2021/08/26 03:28:20;;;;;;;14.83;13.25;;;;;;;14.99;74.52;99366.16;2000340;89;29914;-65
2021/08/26 03:31:22;;;;;;;19.73;15.25;;;;;;;14.99;74.53;99366.16;2046337;85;32226;-65
2021/08/26 03:34:24;;;;;;;14.85;12.73;;;;;;;15.00;74.74;99361.60;2149676;82;34143;-66
2021/08/26 03:37:26;;;;;;;13.70;10.93;;;;;;;15.01;74.79;99356.09;2125427;83;30182;-61
2021/08/26 03:40:28;;;;;;;13.58;9.48;;;;;;;15.01;74.78;99357.45;2122684;83;27639;-62
2021/08/26 03:43:30;;;;;;;11.08;8.50;;;;;;;15.04;74.79;99360.37;2084122;85;29084;-66
2021/08/26 03:46:32;;;;;;;12.47;8.65;;;;;;;15.03;74.97;99356.83;2043093;87;32013;-64
2021/08/26 03:49:37;;;;;;;13.30;9.03;;;;;;;15.04;74.97;99355.84;2061616;86;33039;-63
2021/08/26 03:52:39;;;;;;;10.82;8.63;;;;;;;15.05;75.00;99353.98;2089592;84;30305;-62
2021/08/26 03:55:41;;;;;;;13.25;9.15;;;;;;;15.07;75.12;99349.80;2047316;86;27715;-66
2021/08/26 03:58:43;;;;;;;11.08;7.95;;;;;;;15.04;75.07;99353.63;2081702;85;28621;-66
2021/08/26 04:01:47;;;;;;;13.22;8.78;;;;;;;15.03;75.09;99358.66;2043690;87;32496;-63
2021/08/26 04:04:49;;;;;;;14.43;9.10;;;;;;;15.05;75.24;99359.38;2063514;86;33001;-64
2021/08/26 04:07:51;;;;;;;14.65;8.83;;;;;;;15.07;75.37;99352.50;2079184;85;29030;-66
2021/08/26 04:10:53;;;;;;;13.62;8.70;;;;;;;15.07;75.37;99350.67;2081423;84;28160;-66
2021/08/26 04:13:55;;;;;;;11.60;8.25;;;;;;;15.08;75.38;99351.52;2076877;85;28791;-62
2021/08/26 04:16:57;;;;;;;13.62;9.05;;;;;;;15.08;75.52;99347.47;2088610;84;32255;-61
2021/08/26 04:19:59;;;;;;;12.30;8.25;;;;;;;15.10;75.54;99346.86;2046948;86;34075;-61
2021/08/26 04:23:06;;;;;;;9.83;8.18;;;;;;;15.09;75.55;99339.74;2088639;84;30423;-61
2021/08/26 04:26:08;;;;;;;14.23;8.25;;;;;;;15.10;75.64;99342.80;2076857;85;27681;-61
2021/08/26 04:29:10;;;;;;;13.90;8.93;;;;;;;15.13;75.70;99345.25;2059641;86;29420;-61
2021/08/26 04:32:12;;;;;;;12.78;8.88;;;;;;;15.13;75.64;99343.42;2088703;84;31578;-61
2021/08/26 04:35:14;;;;;;;9.38;7.67;;;;;;;15.14;75.76;99339.72;2051282;85;33335;-61
2021/08/26 04:38:17;;;;;;;14.80;8.93;;;;;;;15.16;75.76;99342.30;2105982;84;30252;-61
2021/08/26 04:41:19;;;;;;;11.57;8.10;;;;;;;15.17;75.83;99344.86;2139402;81;27701;-61
2021/08/26 04:44:21;;;;;;;12.45;7.40;;;;;;;15.18;75.84;99342.52;2148719;81;29008;-62
2021/08/26 04:47:28;;;;;;;11.10;7.50;;;;;;;15.18;75.89;99344.38;2045312;83;27749;-61
2021/08/26 04:50:30;;;;;;;;;;;;;;;15.21;76.05;99334.69;2103184;84;34124;-60
2021/08/26 04:53:32;;;;;;;12.98;7.83;;;;;;;15.23;76.05;99328.64;2101088;84;29415;-60
2021/08/26 04:56:34;;;;;;;10.80;7.80;;;;;;;15.24;76.02;99324.12;2109867;84;27737;-60
2021/08/26 04:59:36;;;;;;;10.60;8.08;;;;;;;15.27;76.20;99328.75;2078060;85;29896;-60
2021/08/26 05:02:38;;;;;;;10.72;8.38;;;;;;;15.31;76.12;99327.51;2108916;84;32199;-60
2021/08/26 05:05:40;;;;;;;13.00;7.80;;;;;;;15.36;76.13;99325.76;2112497;84;33440;-60
2021/08/26 05:08:41;;;;;;;8.90;7.55;;;;;;;15.43;76.30;99326.09;2075576;85;28946;-61
2021/08/26 05:11:44;;;;;;;11.15;7.92;;;;;;;15.47;76.26;99325.69;2158965;81;27763;-60
2021/08/26 05:14:46;;;;;;;12.07;8.13;;;;;;;15.52;76.23;99325.31;2172431;81;28638;-60
2021/08/26 05:17:48;;;;;;;11.18;8.18;;;;;;;15.59;76.34;99323.77;2130141;81;31887;-60
2021/08/26 05:20:50;;;;;;;11.65;7.22;;;;;;;15.64;76.28;99326.07;2116339;84;34182;-60
2021/08/26 05:23:52;;;;;;;10.23;7.00;;;;;;;15.69;76.31;99322.48;2119163;83;28463;-60
2021/08/26 05:26:54;;;;;;;9.05;6.67;;;;;;;15.73;76.17;99318.53;2115713;82;28001;-60
2021/08/26 05:29:56;;;;;;;9.03;6.42;;;;;;;15.74;76.09;99330.18;2113631;81;29546;-69
2021/08/26 05:32:57;;;;;;;7.22;5.97;;;;;;;15.77;76.25;99317.77;2073863;85;32332;-70
2021/08/26 05:35:59;;;;;;;6.60;5.00;;;;;;;15.75;76.06;99317.04;2096700;83;33740;-70
2021/08/26 05:39:01;;;;;;;8.10;5.42;;;;;;;15.73;75.87;99319.02;2106917;84;29923;-70
2021/08/26 05:42:03;;;;;;;9.20;6.58;;;;;;;15.73;76.04;99325.29;2103121;84;27748;-71
2021/08/26 05:45:07;;;;;;;8.70;6.22;;;;;;;15.74;75.89;99324.30;2082831;85;29541;-70
2021/08/26 05:48:08;;;;;;;7.65;5.12;;;;;;;15.77;75.98;99325.39;2082570;84;31126;-71
2021/08/26 05:51:10;;;;;;;8.05;4.95;;;;;;;15.83;75.85;99329.39;2082909;85;32858;-70
2021/08/26 05:54:12;;;;;;;6.37;4.85;;;;;;;15.90;75.98;99319.78;2082814;85;28502;-70
2021/08/26 05:57:14;;;;;;;6.37;4.17;;;;;;;16.04;75.98;99328.53;2093111;84;27672;-69
2021/08/26 06:00:16;;;;;;;6.00;4.58;;;;;;;16.14;75.96;99324.50;2103475;84;29491;-70
2021/08/26 06:03:18;;;;;;;4.60;3.72;;;;;;;16.22;75.91;99324.17;2075970;85;31024;-70
2021/08/26 06:06:21;;;;;;;6.20;3.95;;;;;;;16.27;75.83;99315.67;2081802;85;33044;-69
2021/08/26 06:09:23;;;;;;;5.12;4.00;;;;;;;16.40;75.64;99324.39;2111117;84;29024;-71
2021/08/26 06:12:25;;;;;;;6.37;3.80;;;;;;;16.50;75.80;99318.14;2113003;84;27733;-69
2021/08/26 06:15:27;;;;;;;4.37;3.80;;;;;;;16.59;75.60;99318.67;2104606;84;28691;-69
2021/08/26 06:18:30;;;;;;;4.35;3.05;;;;;;;16.66;75.58;99317.10;2078269;85;31848;-60
2021/08/26 06:21:32;;;;;;;5.78;3.87;;;;;;;16.77;75.45;99317.99;2041532;87;34172;-61
2021/08/26 06:24:34;;;;;;;5.55;3.40;;;;;;;16.86;75.34;99319.36;2076584;85;29846;-60
2021/08/26 06:27:36;;;;;;;4.62;3.50;;;;;;;16.97;75.42;99320.23;2112829;84;28143;-60
2021/08/26 06:30:38;;;;;;;3.62;3.10;;;;;;;17.02;75.32;99313.91;2112774;84;29150;-60
2021/08/26 06:33:43;;;;;;;4.42;3.12;;;;;;;16.93;74.86;99298.00;2112740;84;32199;-61
2021/08/26 06:36:46;;;;;;;3.45;3.15;;;;;;;17.09;75.12;99316.38;2104688;84;33084;-60
2021/08/26 06:39:48;;;;;;;4.87;3.15;;;;;;;17.24;75.11;99315.47;2109517;84;29089;-60
2021/08/26 06:42:50;;;;;;;4.78;3.42;;;;;;;17.45;75.24;99319.87;2109849;84;27696;-60
2021/08/26 06:45:52;;;;;;;6.47;2.70;;;;;;;17.65;74.61;99322.51;2101037;84;29872;-60
2021/08/26 06:48:56;;;;;;;4.37;2.92;;;;;;;17.66;74.15;99320.16;2072813;85;31479;-61
2021/08/26 06:51:58;;;;;;;5.83;3.10;;;;;;;17.64;73.43;99318.09;2101227;84;32997;-60
2021/08/26 06:55:00;;;;;;;5.17;3.33;;;;;;;17.67;73.60;99315.97;2073580;85;29033;-60
2021/08/26 06:58:03;;;;;;;4.55;4.05;;;;;;;17.92;73.58;99316.30;2112739;84;28256;-62
2021/08/26 07:01:05;;;;;;;6.35;4.30;;;;;;;18.23;73.57;99303.86;2113329;84;28662;-64
2021/08/26 07:04:07;;;;;;;7.67;4.72;;;;;;;18.75;73.54;99294.27;2112749;84;31905;-64
2021/08/26 07:07:10;;;;;;;8.90;4.90;;;;;;;19.19;72.27;99295.75;2112418;84;33568;-62
2021/08/26 07:10:12;;;;;;;6.85;5.03;;;;;;;19.47;71.34;99288.82;2112977;84;29859;-61
2021/08/26 07:13:15;;;;;;;6.42;4.53;;;;;;;19.62;70.86;99298.58;2076131;85;27537;-61
2021/08/26 07:16:17;;;;;;;7.05;5.80;;;;;;;19.77;70.28;99293.94;2112888;84;29893;-62
2021/08/26 07:19:20;;;;;;;6.03;4.78;;;;;;;20.01;70.17;99305.48;2112644;84;32238;-63
2021/08/26 07:22:23;;;;;;;6.12;4.80;;;;;;;20.17;69.13;99302.84;2113054;84;33044;-61
2021/08/26 07:25:27;;;;;;;8.93;5.05;;;;;;;20.40;69.14;99303.59;2159513;81;29254;-60
2021/08/26 07:28:29;;;;;;;7.43;4.50;;;;;;;20.51;67.86;99298.89;2173372;81;27652;-60
2021/08/26 07:31:33;;;;;;;8.08;4.87;;;;;;;20.56;68.18;99301.45;2172593;81;28715;-62
2021/08/26 07:34:36;;;;;;;6.90;5.03;;;;;;;20.67;67.85;99303.02;2127385;81;31023;-61
2021/08/26 07:37:40;;;;;;;8.50;5.40;;;;;;;21.01;67.25;99299.86;2095166;83;33973;-61
2021/08/26 07:40:43;;;;;;;11.75;5.50;;;;;;;21.31;66.94;99307.01;2082788;85;28941;-62
2021/08/26 07:43:46;;;;;;;9.75;5.72;;;;;;;21.79;65.63;99302.55;2054080;86;27694;-61
2021/08/26 07:46:49;;;;;;;7.78;4.90;;;;;;;21.71;64.61;99299.86;2082995;85;29119;-60
2021/08/26 07:49:51;;;;;;;6.90;5.12;;;;;;;21.77;64.22;99299.14;2082836;85;31793;-61
2021/08/26 07:52:54;;;;;;;6.53;4.12;;;;;;;21.74;64.29;99288.61;2048442;86;34059;-62
2021/08/26 07:55:58;;;;;;;8.65;4.90;;;;;;;21.85;63.77;99295.05;2083414;84;29035;-62
2021/08/26 07:59:01;;;;;;;7.28;4.08;;;;;;;22.08;64.00;99294.31;2082945;85;27600;-61
2021/08/26 08:02:04;;;;;;;6.60;4.22;;;;;;;22.06;62.55;99293.63;2083310;84;29046;-62
2021/08/26 08:05:09;;;;;;;7.58;4.67;;;;;;;21.92;62.54;99283.45;2082657;85;32020;-66
2021/08/26 08:08:12;;;;;;;7.08;4.20;;;;;;;22.20;62.70;99281.11;2083221;85;33600;-65
2021/08/26 08:11:15;;;;;;;6.30;4.62;;;;;;;22.20;60.92;99283.84;2082749;85;30213;-62
2021/08/26 08:14:18;;;;;;;7.63;3.83;;;;;;;21.95;61.19;99283.95;2078965;85;27648;-63
2021/08/26 08:17:21;;;;;;;9.13;4.92;;;;;;;21.87;61.46;99281.23;2074624;85;29336;-64
2021/08/26 08:20:26;;;;;;;7.27;4.97;;;;;;;21.93;60.43;99278.31;2074778;85;31681;-69
2021/08/26 08:23:30;;;;;;;10.53;4.92;;;;;;;22.07;60.70;99274.88;2080724;84;33193;-63
2021/08/26 08:26:34;;;;;;;5.53;4.50;;;;;;;22.43;61.21;99273.02;2047699;87;30087;-69
2021/08/26 08:29:38;;;;;;;6.53;5.03;;;;;;;23.23;60.62;99271.99;2083730;85;27629;-69
2021/08/26 08:32:42;;;;;;;10.85;4.65;;;;;;;23.77;59.73;99266.84;2047786;87;28734;-68
2021/08/26 08:35:46;;;;;;;4.62;3.87;;;;;;;23.58;58.41;99274.55;2083234;85;31080;-69
2021/08/26 08:38:49;;;;;;;6.45;4.60;;;;;;;23.32;58.35;99278.57;2098038;83;36872;-64
2021/08/26 08:41:51;;;;;;;10.10;5.10;;;;;;;22.93;58.22;99274.59;2074175;84;29139;-66
2021/08/26 08:44:53;;;;;;;8.20;4.97;;;;;;;22.36;57.93;99277.47;2096060;84;27727;-67
2021/08/26 08:47:57;;;;;;;7.12;5.00;;;;;;;21.83;58.31;99282.10;2094226;85;29897;-68
2021/08/26 08:51:00;;;;;;;6.28;5.53;;;;;;;21.50;58.73;99276.69;2094629;85;31029;-67
2021/08/26 08:54:02;;;;;;;9.60;6.55;;;;;;;21.24;59.26;99279.60;2094418;84;33837;-69
2021/08/26 08:57:05;;;;;;;7.90;5.53;;;;;;;21.24;59.78;99272.80;2076568;85;29152;-63
2021/08/26 09:00:13;;;;;;;7.97;6.37;;;;;;;21.44;60.10;99280.61;2077016;85;27714;-69
2021/08/26 09:03:15;;;;;;;11.85;6.22;;;;;;;21.51;59.19;99279.75;2104405;84;28137;-68
2021/08/26 09:06:17;;;;;;;7.80;5.83;;;;;;;21.24;58.82;99283.20;2049877;86;32368;-65
2021/08/26 09:09:20;;;;;;;10.53;6.78;;;;;;;21.08;59.40;99289.48;2050594;85;33990;-69
2021/08/26 09:12:49;;;;;;;8.93;6.35;;;;;;;21.14;60.00;99285.22;2082642;85;29037;-70
2021/08/26 09:15:51;;;;;;;10.25;5.97;;;;;;;21.23;59.54;99286.07;2041312;87;27824;-70
2021/08/26 09:18:54;;;;;;;8.20;6.60;;;;;;;21.42;59.69;99282.16;2082693;85;29512;-68
2021/08/26 09:22:05;;;;;;;10.28;7.75;;;;;;;21.77;59.89;99273.25;2075205;84;31384;-71
2021/08/26 09:25:09;;;;;;;7.20;6.22;;;;;;;22.16;59.65;99268.87;2085842;85;33673;-69
2021/08/26 09:28:31;;;;;;;10.40;5.97;;;;;;;22.46;58.83;99271.83;2051810;86;29828;-69
2021/08/26 09:31:33;;;;;;;9.28;6.65;;;;;;;22.64;58.25;99275.63;2082482;85;28231;-69
2021/08/26 09:34:37;;;;;;;10.08;6.50;;;;;;;22.63;58.48;99273.93;2112766;84;28867;-67
2021/08/26 09:37:47;;;;;;;9.50;5.27;;;;;;;22.70;58.47;99265.87;2085880;84;31029;-68
2021/08/26 09:40:49;;;;;;;6.97;5.33;;;;;;;22.72;57.88;99265.17;2162639;81;32609;-67
2021/08/26 09:43:56;;;;;;;9.73;5.50;;;;;;;22.65;57.24;99264.22;2172920;81;29878;-66
2021/08/26 09:47:09;;;;;;;9.20;5.37;;;;;;;22.67;56.64;99264.36;2171245;81;27679;-68
2021/08/26 09:50:17;;;;;;;8.18;4.83;;;;;;;22.64;56.54;99257.05;2168903;81;29423;-68
2021/08/26 09:53:25;;;;;;;9.60;5.95;;;;;;;22.45;56.08;99268.23;2164974;81;31243;-63
2021/08/26 09:56:44;;;;;;;7.55;5.20;;;;;;;22.08;56.56;99268.40;2171259;81;33917;-61
2021/08/26 09:59:57;;;;;;;4.67;3.75;;;;;;;21.99;57.09;99259.89;2171686;81;29778;-61
2021/08/26 10:02:59;;;;;;;4.05;3.37;;;;;;;22.08;56.85;99261.58;2173204;81;27614;-70
2021/08/26 10:06:01;;;;;;;4.90;3.45;;;;;;;21.96;56.25;99265.70;2173199;81;29662;-71
2021/08/26 10:09:04;;;;;;;6.20;3.22;;;;;;;21.72;56.28;99262.53;2162893;81;32333;-71
2021/08/26 10:12:11;;;;;;;6.22;3.30;;;;;;;21.46;56.17;99267.15;2110264;84;34165;-69
2021/08/26 10:15:12;;;;;;;6.25;3.65;;;;;;;21.20;56.59;99267.34;2110507;84;29025;-70
2021/08/26 10:18:19;;;;;;;5.00;3.40;;;;;;;20.86;56.92;99266.49;2110691;84;27691;-70
2021/08/26 10:21:22;;;;;;;5.70;3.65;;;;;;;20.55;57.06;99264.86;2092628;84;29978;-67
2021/08/26 10:24:24;;;;;;;7.65;2.90;;;;;;;20.38;57.69;99267.55;2113289;84;32060;-70
2021/08/26 10:27:28;;;;;;;4.67;2.62;;;;;;;20.36;57.72;99267.38;2113399;84;34143;-71
2021/08/26 10:30:39;;;;;;;4.47;3.10;;;;;;;20.38;58.17;99270.27;2114131;84;29792;-70
2021/08/26 10:33:41;;;;;;;3.55;2.47;;;;;;;20.61;58.56;99264.21;2076538;85;27736;-70
2021/08/26 10:36:57;;;;;;;3.45;2.67;;;;;;;20.93;57.93;99259.86;2113667;84;28282;-70
2021/08/26 10:39:59;;;;;;;3.20;2.47;;;;;;;21.21;58.12;99255.42;2111391;84;32126;-70
2021/08/26 10:43:01;;;;;;;2.52;2.10;;;;;;;21.55;58.15;99255.23;2086752;84;33457;-69
2021/08/26 10:46:08;;;;;;;4.40;2.10;;;;;;;21.83;57.68;99248.02;2113083;84;30143;-70
2021/08/26 10:49:14;;;;;;;3.27;2.45;;;;;;;22.11;57.32;99252.18;2112802;81;27672;-71
2021/08/26 10:52:41;;;;;;;2.55;2.17;;;;;;;22.28;56.90;99253.80;2113624;84;29901;-71
2021/08/26 10:55:46;;;;;;;6.08;2.90;;;;;;;22.48;56.49;99253.40;2113305;84;32258;-70
2021/08/26 10:58:51;;;;;;;6.33;2.20;;;;;;;22.70;55.87;99251.72;2113616;84;33099;-70
2021/08/26 11:01:55;;;;;;;3.15;2.60;;;;;;;22.81;55.33;99251.81;2117801;84;29032;-70
2021/08/26 11:05:36;;;;;;;2.10;1.90;;;;;;;22.88;55.21;99250.56;2123067;83;27623;-69
2021/08/26 11:08:39;;;;;;;3.70;2.70;;;;;;;22.78;54.86;99256.77;2119256;84;28706;-60
2021/08/26 11:11:47;;;;;;;3.50;2.50;;;;;;;22.64;54.05;99261.98;2114007;83;32310;-60
2021/08/26 11:14:51;;;;;;;2.08;1.85;;;;;;;22.64;54.16;99259.25;2113267;84;33780;-68
2021/08/26 11:17:53;;;;;;;1.70;1.42;;;;;;;22.68;54.16;99254.27;2113657;84;29747;-60
2021/08/26 11:20:55;;;;;;;4.00;1.80;;;;;;;22.86;53.86;99254.00;2119044;81;27755;-60
2021/08/26 11:23:58;;;;;;;1.98;1.77;;;;;;;22.96;53.13;99257.31;2123459;83;28629;-60
2021/08/26 11:27:21;;;;;;;3.05;1.90;;;;;;;22.92;51.92;99257.34;2123301;83;31175;-60
2021/08/26 11:30:26;;;;;;;2.75;1.90;;;;;;;22.68;52.33;99260.59;2121286;83;33047;-70
2021/08/26 11:33:30;;;;;;;4.33;2.22;;;;;;;22.53;52.99;99265.13;2122736;83;29864;-70
2021/08/26 11:36:34;;;;;;;1.83;1.47;;;;;;;22.37;53.10;99266.03;2082726;85;27838;-68
2021/08/26 11:39:46;;;;;;;3.77;1.80;;;;;;;22.26;53.07;99266.77;2111674;82;28869;-68
2021/08/26 11:42:52;;;;;;;2.87;1.62;;;;;;;22.21;52.92;99267.81;2074202;85;32349;-68
2021/08/26 11:45:58;;;;;;;2.17;1.62;;;;;;;22.25;53.30;99276.52;2074570;85;33661;-70
2021/08/26 11:49:02;;;;;;;3.02;1.72;;;;;;;22.33;52.91;99272.37;2074203;85;29087;-71
2021/08/26 11:52:09;;;;;;;3.87;2.07;;;;;;;22.44;53.12;99269.78;2093128;84;27739;-69
2021/08/26 11:55:11;;;;;;;2.10;1.47;;;;;;;22.51;53.26;99270.75;2039188;87;28945;-68
2021/08/26 11:58:16;;;;;;;3.83;1.92;;;;;;;22.54;53.05;99278.59;2074770;85;31273;-71
2021/08/26 12:01:24;;;;;;;3.33;1.70;;;;;;;22.59;52.98;99272.58;2105365;84;33057;-69
2021/08/26 12:04:37;;;;;;;1.25;1.15;;;;;;;22.71;53.45;99277.13;2083456;85;30641;-66
2021/08/26 12:08:06;;;;;;;3.60;1.60;;;;;;;22.65;52.43;99284.69;2084218;85;27745;-64
2021/08/26 12:10:56;;;;;;;3.15;1.55;;;;;;;22.35;53.07;99283.09;2035462;86;27666;-70
2021/08/26 12:14:06;;;;;;;1.27;1.17;;;;;;;21.96;53.49;99295.69;2110560;84;31078;-69
2021/08/26 12:17:17;;;;;;;1.10;0.95;;;;;;;21.62;53.88;99304.47;2108603;84;32940;-64
2021/08/26 12:20:21;;;;;;;1.35;1.17;;;;;;;21.31;53.96;99302.43;2091763;85;33283;-61
2021/08/26 12:23:31;;;;;;;4.03;1.82;;;;;;;21.07;54.52;99298.66;2074776;85;27725;-60
2021/08/26 12:26:38;;;;;;;4.22;1.50;;;;;;;20.93;55.03;99301.53;2040779;87;28738;-63
2021/08/26 12:29:44;;;;;;;2.37;2.00;;;;;;;20.87;55.21;99298.14;2085737;85;31101;-61
2021/08/26 12:33:41;;;;;;;1.55;1.45;;;;;;;20.79;55.49;99307.15;2104178;84;32969;-64
2021/08/26 12:36:01;;;;;;;3.42;1.77;;;;;;;20.82;56.04;99301.88;2014968;85;27719;-61
2021/08/26 12:39:24;;;;;;;3.67;2.10;;;;;;;20.88;55.81;99302.57;2052625;85;27807;-62
2021/08/26 12:42:26;;;;;;;3.72;2.40;;;;;;;20.89;55.96;99297.96;2077681;85;29458;-61
2021/08/26 12:45:31;;;;;;;2.77;1.90;;;;;;;20.88;56.18;99302.57;2084269;84;31742;-60
2021/08/26 12:48:39;;;;;;;1.47;1.37;;;;;;;20.87;55.93;99306.80;2047488;86;32991;-61
2021/08/26 12:51:57;;;;;;;2.58;1.52;;;;;;;20.76;55.42;99315.64;2052409;85;30199;-67
2021/08/26 12:54:59;;;;;;;1.35;1.10;;;;;;;20.69;54.62;99316.45;2026433;87;27816;-63
2021/08/26 12:58:14;;;;;;;1.80;1.35;;;;;;;20.58;54.46;99321.68;2074492;85;29512;-71
2021/08/26 13:01:53;;;;;;;;;;;;;;;;;;;;;
2021/08/26 13:04:36;;;;;;;1.10;1.00;;;;;;;20.16;54.34;99322.03;2067722;84;28384;-69
2021/08/26 13:08:37;;;;;;;3.52;1.00;;;;;;;20.05;54.69;99320.44;2083867;85;29028;-65
2021/08/26 13:14:33;;;;;;;1.10;1.00;;;;;;;19.89;55.27;99331.57;1783266;98;28611;-63
2021/08/26 13:21:14;;;;;;;;;;;;;;;;;;;;;
2021/08/26 13:50:38;;;;;;;;;;;;;;;;;;;;;
2021/08/26 13:57:52;;;;;;;1.62;1.50;;;;;;;19.19;57.64;99335.61;1534074;113;27843;-61
2021/08/26 14:01:15;;;;;;;2.52;1.35;;;;;;;19.11;58.03;99326.36;1572989;113;27883;-62
2021/08/26 14:11:56;;;;;;;2.27;1.75;;;;;;;18.94;59.42;99324.50;1666540;106;27897;-63
2021/08/26 14:34:08;;;;;;;6.25;1.50;;;;;;;19.25;60.38;99328.20;1625068;107;27891;-66
2021/08/26 14:37:27;;;;;;;5.50;1.40;;;;;;;19.37;59.98;99336.45;1634122;108;28307;-63
2021/08/26 14:40:52;;;;;;;1.75;1.20;;;;;;;19.34;59.49;99339.47;1644310;106;27893;-65
2021/08/26 14:44:11;;;;;;;2.10;1.52;;;;;;;19.33;59.73;99339.64;1632598;104;28033;-65
2021/08/26 14:46:56;;;;;;;2.05;1.30;;;;;;;19.33;60.19;99339.13;1814827;97;28836;-60
2021/08/26 14:49:59;;;;;;;2.70;1.30;;;;;;;19.27;60.03;99333.81;1943757;90;29416;-62
2021/08/26 14:53:04;;;;;;;1.80;1.30;;;;;;;19.18;59.57;99336.61;1956509;89;27832;-68
2021/08/26 14:56:06;;;;;;;1.80;1.42;;;;;;;19.05;59.53;99343.78;2074064;83;29947;-62
2021/08/26 14:59:09;;;;;;;2.27;1.47;;;;;;;18.92;59.77;99340.92;2138993;83;31103;-60
2021/08/26 15:02:11;;;;;;;3.67;1.85;;;;;;;18.89;60.17;99342.58;2135237;81;33796;-60
2021/08/26 15:05:14;;;;;;;5.83;2.52;;;;;;;18.89;60.26;99345.29;2120617;83;29990;-60
2021/08/26 15:08:25;;;;;;;3.65;1.50;;;;;;;18.92;60.14;99348.22;2119667;83;27700;-60
2021/08/26 15:11:30;;;;;;;2.50;1.67;;;;;;;18.99;60.42;99350.69;2118167;83;28794;-60
2021/08/26 15:14:32;;;;;;;4.50;1.57;;;;;;;19.01;60.26;99358.69;2138540;83;32264;-63
2021/08/26 15:17:34;;;;;;;2.35;1.90;;;;;;;18.98;60.34;99363.42;2140524;83;34167;-69
2021/08/26 15:20:37;;;;;;;3.08;1.77;;;;;;;18.92;60.49;99363.98;2147978;82;29343;-66
2021/08/26 15:23:39;;;;;;;5.37;2.33;;;;;;;18.94;60.92;99369.28;2130653;81;27644;-66
2021/08/26 15:26:41;;;;;;;3.25;1.95;;;;;;;19.02;61.32;99368.55;2119248;84;29881;-67
2021/08/26 15:29:47;;;;;;;3.00;1.70;;;;;;;19.00;61.46;99364.61;2119224;84;32008;-67
2021/08/26 15:32:50;;;;;;;1.35;1.25;;;;;;;19.03;61.40;99360.75;2133057;82;33633;-68
2021/08/26 15:35:54;;;;;;;3.27;1.52;;;;;;;18.98;61.10;99367.98;2170008;82;44248;-60
2021/08/26 15:38:58;;;;;;;1.57;1.20;;;;;;;18.93;61.25;99372.48;2170297;82;27636;-60
2021/08/26 15:42:10;;;;;;;4.95;1.17;;;;;;;18.88;61.44;99379.38;2159841;81;29769;-60
2021/08/26 15:45:24;;;;;;;1.55;1.25;;;;;;;18.76;61.27;99387.75;2125518;83;31063;-60
2021/08/26 15:48:35;;;;;;;4.10;1.67;;;;;;;18.61;61.40;99386.03;2122612;83;33036;-61